ETH442 HAAB-OEMA
Flight info
| Callsign | ETH442 |
|---|---|
| Flight time | 2h 3m |
| Altitude | 38000 |
| Route | EKBOB1A EKBOB DCT KONET/N0485F390 UG650 RASKA/N0482F380 T513 EGMEG/N0479F390 T513 JDW A424 RULEB/N0480F400 A424 DEGVU |
| Aircraft | A35K/H-SDE2E3GHIJ1J3J4J5LM1ORWXY/LB1D1 |
Departure
| Time | 2026-05-08 14:18 |
|---|---|
| Airport | Addis Ababa Bole International Airport (HAAB) |
Arrival
| Time | 2026-05-08 16:21 |
|---|---|
| Airport | Prince Mohammad Bin Abdulaziz Airport (OEMA) |
| Time | Latitude | Longitude | Altitude | Speed | Heading |
|---|---|---|---|---|---|
| 2026-05-08 13:53 | 8.98230 | 38.79662 | 7630 ft | 0 kts | 345° |
| 2026-05-08 14:03 | 8.98223 | 38.79664 | 7631 ft | 3 kts | 345° |
| 2026-05-08 14:03 | 8.98203 | 38.79669 | 7629 ft | 3 kts | 339° |
| 2026-05-08 14:03 | 8.98187 | 38.79679 | 7629 ft | 3 kts | 307° |
| 2026-05-08 14:04 | 8.98179 | 38.79695 | 7629 ft | 3 kts | 274° |
| 2026-05-08 14:04 | 8.98180 | 38.79715 | 7629 ft | 3 kts | 257° |
| 2026-05-08 14:04 | 8.98181 | 38.79718 | 7629 ft | 0 kts | 256° |
| 2026-05-08 14:08 | 8.98180 | 38.79717 | 7629 ft | 1 kts | 256° |
| 2026-05-08 14:08 | 8.98179 | 38.79710 | 7629 ft | 2 kts | 256° |
| 2026-05-08 14:09 | 8.98175 | 38.79695 | 7629 ft | 3 kts | 255° |
| 2026-05-08 14:09 | 8.98169 | 38.79672 | 7629 ft | 4 kts | 255° |
| 2026-05-08 14:09 | 8.98159 | 38.79642 | 7629 ft | 5 kts | 251° |
| 2026-05-08 14:09 | 8.98147 | 38.79606 | 7629 ft | 6 kts | 251° |
| 2026-05-08 14:10 | 8.98132 | 38.79562 | 7629 ft | 7 kts | 251° |
| 2026-05-08 14:10 | 8.98117 | 38.79511 | 7629 ft | 8 kts | 256° |
| 2026-05-08 14:10 | 8.98103 | 38.79455 | 7629 ft | 9 kts | 256° |
| 2026-05-08 14:10 | 8.98086 | 38.79392 | 7628 ft | 10 kts | 253° |
| 2026-05-08 14:11 | 8.98067 | 38.79324 | 7628 ft | 9 kts | 253° |
| 2026-05-08 14:11 | 8.98048 | 38.79259 | 7630 ft | 10 kts | 255° |
| 2026-05-08 14:11 | 8.98032 | 38.79188 | 7628 ft | 11 kts | 257° |
| 2026-05-08 14:11 | 8.98012 | 38.79112 | 7628 ft | 12 kts | 255° |
| 2026-05-08 14:12 | 8.97990 | 38.79032 | 7627 ft | 12 kts | 253° |
| 2026-05-08 14:12 | 8.97965 | 38.78947 | 7627 ft | 13 kts | 252° |
| 2026-05-08 14:12 | 8.97938 | 38.78859 | 7627 ft | 13 kts | 253° |
| 2026-05-08 14:12 | 8.97907 | 38.78771 | 7627 ft | 13 kts | 238° |
| 2026-05-08 14:13 | 8.97829 | 38.78738 | 7626 ft | 11 kts | 191° |
| 2026-05-08 14:13 | 8.97790 | 38.78701 | 7626 ft | 8 kts | 237° |
| 2026-05-08 14:13 | 8.97767 | 38.78650 | 7626 ft | 8 kts | 250° |
| 2026-05-08 14:13 | 8.97751 | 38.78592 | 7626 ft | 9 kts | 256° |
| 2026-05-08 14:14 | 8.97750 | 38.78527 | 7626 ft | 10 kts | 278° |
| 2026-05-08 14:14 | 8.97752 | 38.78458 | 7625 ft | 10 kts | 262° |
| 2026-05-08 14:14 | 8.97740 | 38.78385 | 7625 ft | 11 kts | 261° |
| 2026-05-08 14:14 | 8.97726 | 38.78306 | 7625 ft | 12 kts | 255° |
| 2026-05-08 14:15 | 8.97701 | 38.78228 | 7625 ft | 12 kts | 239° |
| 2026-05-08 14:15 | 8.97628 | 38.78203 | 7624 ft | 12 kts | 173° |
| 2026-05-08 14:15 | 8.97542 | 38.78226 | 7623 ft | 13 kts | 165° |
| 2026-05-08 14:15 | 8.97449 | 38.78251 | 7621 ft | 13 kts | 165° |
| 2026-05-08 14:16 | 8.97362 | 38.78280 | 7622 ft | 12 kts | 157° |
| 2026-05-08 14:16 | 8.97319 | 38.78305 | 7628 ft | 2 kts | 145° |
| 2026-05-08 14:16 | 8.97310 | 38.78311 | 7630 ft | 5 kts | 144° |
| 2026-05-08 14:16 | 8.97264 | 38.78344 | 7636 ft | 9 kts | 145° |
| 2026-05-08 14:17 | 8.97240 | 38.78384 | 7637 ft | 6 kts | 92° |
| 2026-05-08 14:17 | 8.97244 | 38.78401 | 7637 ft | 0 kts | 74° |
| 2026-05-08 14:17 | 8.97245 | 38.78402 | 7637 ft | 0 kts | 74° |
| 2026-05-08 14:17 | 8.97258 | 38.78447 | 7638 ft | 24 kts | 73° |
| 2026-05-08 14:18 | 8.97374 | 38.78843 | 7637 ft | 93 kts | 73° |
| 2026-05-08 14:18 | 8.97523 | 38.79350 | 7633 ft | 133 kts | 73° |
| 2026-05-08 14:18 | 8.97953 | 38.80833 | 7800 ft | 182 kts | 73° |
| 2026-05-08 14:18 | 8.98284 | 38.81972 | 8777 ft | 162 kts | 72° |
| 2026-05-08 14:19 | 8.98593 | 38.83125 | 9123 ft | 176 kts | 75° |
| 2026-05-08 14:19 | 8.98800 | 38.83942 | 9264 ft | 186 kts | 75° |
| 2026-05-08 14:19 | 8.99140 | 38.85266 | 9460 ft | 203 kts | 74° |
| 2026-05-08 14:19 | 8.99519 | 38.86718 | 9656 ft | 223 kts | 74° |
| 2026-05-08 14:20 | 8.99941 | 38.88301 | 9834 ft | 243 kts | 74° |
| 2026-05-08 14:20 | 9.00406 | 38.90019 | 10032 ft | 263 kts | 74° |
| 2026-05-08 14:20 | 9.00908 | 38.91880 | 10249 ft | 284 kts | 74° |
| 2026-05-08 14:20 | 9.01444 | 38.93874 | 10495 ft | 302 kts | 74° |
| 2026-05-08 14:21 | 9.02014 | 38.95983 | 10757 ft | 320 kts | 74° |
| 2026-05-08 14:21 | 9.02619 | 38.98208 | 11018 ft | 336 kts | 74° |
| 2026-05-08 14:21 | 9.03242 | 39.00542 | 11323 ft | 349 kts | 75° |
| 2026-05-08 14:21 | 9.03677 | 39.02980 | 11813 ft | 355 kts | 84° |
| 2026-05-08 14:22 | 9.04227 | 39.05423 | 12366 ft | 358 kts | 65° |
| 2026-05-08 14:22 | 9.05675 | 39.07460 | 13002 ft | 362 kts | 43° |
| 2026-05-08 14:22 | 9.07794 | 39.08777 | 13612 ft | 367 kts | 20° |
| 2026-05-08 14:22 | 9.10347 | 39.09208 | 14249 ft | 371 kts | 1° |
| 2026-05-08 14:23 | 9.12897 | 39.09411 | 14831 ft | 374 kts | 9° |
| 2026-05-08 14:23 | 9.15432 | 39.10036 | 15379 ft | 377 kts | 18° |
| 2026-05-08 14:23 | 9.17895 | 39.10991 | 15905 ft | 381 kts | 24° |
| 2026-05-08 14:23 | 9.20302 | 39.12150 | 16490 ft | 384 kts | 27° |
| 2026-05-08 14:24 | 9.22679 | 39.13425 | 17013 ft | 389 kts | 28° |
| 2026-05-08 14:24 | 9.25049 | 39.14764 | 17534 ft | 393 kts | 28° |
| 2026-05-08 14:24 | 9.27555 | 39.15893 | 18062 ft | 396 kts | 17° |
| 2026-05-08 14:24 | 9.30264 | 39.16410 | 18601 ft | 398 kts | 5° |
| 2026-05-08 14:25 | 9.33044 | 39.16649 | 19060 ft | 403 kts | 4° |
| 2026-05-08 14:25 | 9.35856 | 39.16861 | 19565 ft | 406 kts | 4° |
| 2026-05-08 14:25 | 9.38650 | 39.17078 | 20041 ft | 410 kts | 4° |
| 2026-05-08 14:25 | 9.41503 | 39.17306 | 20534 ft | 413 kts | 4° |
| 2026-05-08 14:26 | 9.44383 | 39.17542 | 21001 ft | 416 kts | 5° |
| 2026-05-08 14:26 | 9.47287 | 39.17783 | 21447 ft | 421 kts | 5° |
| 2026-05-08 14:26 | 9.50215 | 39.18027 | 21916 ft | 424 kts | 5° |
| 2026-05-08 14:26 | 9.53165 | 39.18275 | 22375 ft | 427 kts | 5° |
| 2026-05-08 14:27 | 9.56135 | 39.18525 | 22688 ft | 430 kts | 5° |
| 2026-05-08 14:27 | 9.59121 | 39.18776 | 22757 ft | 431 kts | 5° |
| 2026-05-08 14:27 | 9.62112 | 39.19027 | 22759 ft | 432 kts | 5° |
| 2026-05-08 14:27 | 9.65111 | 39.19279 | 22754 ft | 433 kts | 5° |
| 2026-05-08 14:28 | 9.68113 | 39.19533 | 22763 ft | 433 kts | 5° |
| 2026-05-08 14:28 | 9.71128 | 39.19791 | 22937 ft | 436 kts | 5° |
| 2026-05-08 14:28 | 9.74167 | 39.20046 | 23422 ft | 438 kts | 5° |
| 2026-05-08 14:28 | 9.77211 | 39.20302 | 23891 ft | 440 kts | 5° |
| 2026-05-08 14:29 | 9.80234 | 39.20556 | 24245 ft | 443 kts | 5° |
| 2026-05-08 14:29 | 9.83321 | 39.20816 | 24638 ft | 446 kts | 5° |
| 2026-05-08 14:29 | 9.86430 | 39.21077 | 25083 ft | 449 kts | 5° |
| 2026-05-08 14:29 | 9.89551 | 39.21340 | 25516 ft | 452 kts | 5° |
| 2026-05-08 14:30 | 9.92702 | 39.21605 | 25948 ft | 456 kts | 5° |
| 2026-05-08 14:30 | 9.95868 | 39.21872 | 26397 ft | 458 kts | 5° |
| 2026-05-08 14:30 | 9.99060 | 39.22142 | 26860 ft | 462 kts | 5° |
| 2026-05-08 14:30 | 10.02279 | 39.22413 | 27298 ft | 466 kts | 4° |
| 2026-05-08 14:31 | 10.05530 | 39.22688 | 27715 ft | 470 kts | 5° |
| 2026-05-08 14:31 | 10.08802 | 39.22964 | 28151 ft | 473 kts | 5° |
| 2026-05-08 14:31 | 10.12089 | 39.23242 | 28599 ft | 476 kts | 5° |
| 2026-05-08 14:32 | 10.18756 | 39.23805 | 29432 ft | 483 kts | 5° |
| 2026-05-08 14:32 | 10.22078 | 39.24086 | 29865 ft | 486 kts | 5° |
| 2026-05-08 14:32 | 10.25456 | 39.24372 | 30223 ft | 489 kts | 5° |
| 2026-05-08 14:32 | 10.28860 | 39.24661 | 30600 ft | 492 kts | 4° |
| 2026-05-08 14:33 | 10.32288 | 39.24952 | 30950 ft | 495 kts | 4° |
| 2026-05-08 14:33 | 10.35733 | 39.25243 | 31321 ft | 498 kts | 4° |
| 2026-05-08 14:33 | 10.39193 | 39.25534 | 31652 ft | 501 kts | 4° |
| 2026-05-08 14:33 | 10.42675 | 39.25828 | 31969 ft | 503 kts | 4° |
| 2026-05-08 14:34 | 10.46179 | 39.26124 | 32291 ft | 506 kts | 4° |
| 2026-05-08 14:34 | 10.49698 | 39.26421 | 32582 ft | 508 kts | 4° |
| 2026-05-08 14:34 | 10.53235 | 39.26721 | 32867 ft | 511 kts | 4° |
| 2026-05-08 14:34 | 10.56794 | 39.27023 | 33138 ft | 514 kts | 4° |
| 2026-05-08 14:35 | 10.60368 | 39.27325 | 33388 ft | 516 kts | 4° |
| 2026-05-08 14:35 | 10.63954 | 39.27629 | 33709 ft | 517 kts | 4° |
| 2026-05-08 14:35 | 10.67536 | 39.27932 | 34140 ft | 516 kts | 4° |
| 2026-05-08 14:35 | 10.71116 | 39.28137 | 34520 ft | 514 kts | 359° |
| 2026-05-08 14:36 | 10.74686 | 39.28010 | 34883 ft | 513 kts | 355° |
| 2026-05-08 14:36 | 10.78200 | 39.27796 | 35251 ft | 512 kts | 355° |
| 2026-05-08 14:36 | 10.81800 | 39.27566 | 35584 ft | 511 kts | 355° |
| 2026-05-08 14:36 | 10.85302 | 39.27345 | 35941 ft | 510 kts | 355° |
| 2026-05-08 14:37 | 10.87464 | 39.27209 | 36145 ft | 510 kts | 355° |
| 2026-05-08 14:37 | 10.91001 | 39.26990 | 36432 ft | 509 kts | 355° |
| 2026-05-08 14:37 | 10.94551 | 39.26769 | 36710 ft | 509 kts | 355° |
| 2026-05-08 14:37 | 10.98081 | 39.26551 | 37024 ft | 508 kts | 355° |
| 2026-05-08 14:38 | 11.01605 | 39.26332 | 37361 ft | 506 kts | 355° |
| 2026-05-08 14:38 | 11.05112 | 39.26115 | 37682 ft | 504 kts | 355° |
| 2026-05-08 14:38 | 11.08618 | 39.25897 | 37865 ft | 503 kts | 355° |
| 2026-05-08 14:38 | 11.12110 | 39.25680 | 37945 ft | 501 kts | 355° |
| 2026-05-08 14:39 | 11.19016 | 39.25252 | 38079 ft | 484 kts | 355° |
| 2026-05-08 14:39 | 11.22318 | 39.25048 | 38153 ft | 471 kts | 355° |
| 2026-05-08 14:39 | 11.25511 | 39.24850 | 38151 ft | 477 kts | 355° |
| 2026-05-08 14:40 | 11.32226 | 39.24431 | 38134 ft | 489 kts | 355° |
| 2026-05-08 14:40 | 11.39104 | 39.24005 | 38129 ft | 500 kts | 355° |
| 2026-05-08 14:41 | 11.46014 | 39.23402 | 38126 ft | 503 kts | 352° |
| 2026-05-08 14:41 | 11.52968 | 39.22579 | 38129 ft | 502 kts | 352° |
| 2026-05-08 14:42 | 11.59266 | 39.21843 | 38118 ft | 502 kts | 352° |
| 2026-05-08 14:42 | 11.66213 | 39.21072 | 38118 ft | 502 kts | 353° |
| 2026-05-08 14:43 | 11.73162 | 39.20320 | 38111 ft | 502 kts | 353° |
| 2026-05-08 14:43 | 11.80111 | 39.19568 | 38105 ft | 502 kts | 353° |
| 2026-05-08 14:44 | 11.87066 | 39.18815 | 38098 ft | 502 kts | 353° |
| 2026-05-08 14:44 | 11.94021 | 39.18061 | 38089 ft | 502 kts | 353° |
| 2026-05-08 14:45 | 12.00982 | 39.17306 | 38091 ft | 502 kts | 353° |
| 2026-05-08 14:45 | 12.07935 | 39.16551 | 38081 ft | 503 kts | 353° |
| 2026-05-08 14:46 | 12.14891 | 39.15795 | 38094 ft | 503 kts | 353° |
| 2026-05-08 14:46 | 12.21822 | 39.15041 | 38082 ft | 503 kts | 353° |
| 2026-05-08 14:47 | 12.28781 | 39.14285 | 38082 ft | 503 kts | 353° |
| 2026-05-08 14:47 | 12.35736 | 39.13527 | 38074 ft | 502 kts | 353° |
| 2026-05-08 14:48 | 12.42702 | 39.12770 | 38070 ft | 503 kts | 353° |
| 2026-05-08 14:48 | 12.49651 | 39.12013 | 38063 ft | 502 kts | 353° |
| 2026-05-08 14:49 | 12.56612 | 39.11254 | 38056 ft | 503 kts | 352° |
| 2026-05-08 14:49 | 12.63517 | 39.10499 | 38054 ft | 503 kts | 352° |
| 2026-05-08 14:50 | 12.70480 | 39.09739 | 38045 ft | 503 kts | 352° |
| 2026-05-08 14:50 | 12.77452 | 39.08981 | 38025 ft | 503 kts | 352° |
| 2026-05-08 14:51 | 12.84426 | 39.08219 | 37999 ft | 503 kts | 352° |
| 2026-05-08 14:51 | 12.91394 | 39.07456 | 37997 ft | 503 kts | 352° |
| 2026-05-08 14:52 | 13.01831 | 39.06313 | 37991 ft | 503 kts | 352° |
| 2026-05-08 14:53 | 13.08754 | 39.05557 | 37990 ft | 503 kts | 352° |
| 2026-05-08 14:53 | 13.15710 | 39.04796 | 37981 ft | 503 kts | 352° |
| 2026-05-08 14:54 | 13.22675 | 39.04033 | 37980 ft | 503 kts | 352° |
| 2026-05-08 14:54 | 13.29649 | 39.03267 | 37968 ft | 504 kts | 352° |
| 2026-05-08 14:55 | 13.36620 | 39.02503 | 37977 ft | 504 kts | 352° |
| 2026-05-08 14:55 | 13.43597 | 39.01737 | 37956 ft | 504 kts | 352° |
| 2026-05-08 14:56 | 13.50572 | 39.00973 | 37958 ft | 503 kts | 352° |
| 2026-05-08 14:56 | 13.57541 | 39.00206 | 37949 ft | 503 kts | 352° |
| 2026-05-08 14:57 | 13.64518 | 38.99438 | 37956 ft | 504 kts | 352° |
| 2026-05-08 14:57 | 13.71448 | 38.98676 | 37951 ft | 504 kts | 352° |
| 2026-05-08 14:58 | 13.78430 | 38.97908 | 37936 ft | 504 kts | 352° |
| 2026-05-08 14:58 | 13.85411 | 38.97139 | 37935 ft | 504 kts | 352° |
| 2026-05-08 14:59 | 13.92388 | 38.96370 | 37934 ft | 504 kts | 352° |
| 2026-05-08 14:59 | 14.02847 | 38.95217 | 37928 ft | 504 kts | 352° |
| 2026-05-08 15:00 | 14.09838 | 38.94447 | 37922 ft | 506 kts | 352° |
| 2026-05-08 15:00 | 14.16843 | 38.93670 | 37927 ft | 506 kts | 351° |
| 2026-05-08 15:01 | 14.23854 | 38.92891 | 37918 ft | 507 kts | 351° |
| 2026-05-08 15:01 | 14.30828 | 38.92121 | 37916 ft | 507 kts | 351° |
| 2026-05-08 15:02 | 14.37861 | 38.91345 | 37914 ft | 507 kts | 351° |
| 2026-05-08 15:02 | 14.44888 | 38.90569 | 37906 ft | 507 kts | 351° |
| 2026-05-08 15:03 | 14.51939 | 38.90041 | 38225 ft | 508 kts | 356° |
| 2026-05-08 15:03 | 14.55433 | 38.89994 | 38474 ft | 508 kts | 357° |
| 2026-05-08 15:03 | 14.58967 | 38.89981 | 38695 ft | 508 kts | 358° |
| 2026-05-08 15:04 | 14.61350 | 38.89983 | 38837 ft | 508 kts | 358° |
| 2026-05-08 15:04 | 14.66048 | 38.89996 | 38897 ft | 510 kts | 358° |
| 2026-05-08 15:04 | 14.73195 | 38.90018 | 38894 ft | 510 kts | 358° |
| 2026-05-08 15:05 | 14.80245 | 38.90031 | 38896 ft | 511 kts | 357° |
| 2026-05-08 15:05 | 14.87359 | 38.90038 | 38891 ft | 511 kts | 357° |
| 2026-05-08 15:06 | 14.94475 | 38.90044 | 38887 ft | 511 kts | 357° |
| 2026-05-08 15:06 | 15.00395 | 38.90051 | 38887 ft | 512 kts | 357° |
| 2026-05-08 15:07 | 15.07529 | 38.90059 | 38888 ft | 513 kts | 357° |
| 2026-05-08 15:07 | 15.14668 | 38.90066 | 38878 ft | 513 kts | 357° |
| 2026-05-08 15:08 | 15.21821 | 38.90074 | 38879 ft | 513 kts | 356° |
| 2026-05-08 15:08 | 15.28995 | 38.90083 | 38881 ft | 518 kts | 356° |
| 2026-05-08 15:09 | 15.36225 | 38.90261 | 38880 ft | 521 kts | 359° |
| 2026-05-08 15:09 | 15.43472 | 38.90574 | 38879 ft | 521 kts | 359° |
| 2026-05-08 15:10 | 15.50679 | 38.90871 | 38878 ft | 521 kts | 359° |
| 2026-05-08 15:10 | 15.57941 | 38.91141 | 38874 ft | 522 kts | 358° |
| 2026-05-08 15:11 | 15.65201 | 38.91401 | 38867 ft | 523 kts | 358° |
| 2026-05-08 15:11 | 15.72469 | 38.91660 | 38871 ft | 522 kts | 358° |
| 2026-05-08 15:12 | 15.79736 | 38.91921 | 38871 ft | 523 kts | 358° |
| 2026-05-08 15:12 | 15.87018 | 38.92183 | 38871 ft | 523 kts | 358° |
| 2026-05-08 15:13 | 15.94301 | 38.92445 | 38859 ft | 523 kts | 358° |
| 2026-05-08 15:13 | 16.01577 | 38.92706 | 38859 ft | 523 kts | 358° |
| 2026-05-08 15:14 | 16.08868 | 38.92969 | 38860 ft | 526 kts | 358° |
| 2026-05-08 15:14 | 16.16145 | 38.93233 | 38859 ft | 526 kts | 358° |
| 2026-05-08 15:15 | 16.23464 | 38.93498 | 38859 ft | 526 kts | 358° |
| 2026-05-08 15:15 | 16.30795 | 38.93763 | 38860 ft | 527 kts | 358° |
| 2026-05-08 15:16 | 16.38115 | 38.94028 | 38851 ft | 526 kts | 358° |
| 2026-05-08 15:16 | 16.45442 | 38.94293 | 38851 ft | 527 kts | 358° |
| 2026-05-08 15:17 | 16.52771 | 38.94560 | 38851 ft | 527 kts | 358° |
| 2026-05-08 15:17 | 16.60098 | 38.94824 | 38851 ft | 527 kts | 358° |
| 2026-05-08 15:18 | 16.67378 | 38.95087 | 38850 ft | 527 kts | 358° |
| 2026-05-08 15:18 | 16.74713 | 38.95354 | 38850 ft | 527 kts | 358° |
| 2026-05-08 15:19 | 16.82049 | 38.95621 | 38851 ft | 527 kts | 358° |
| 2026-05-08 15:19 | 16.89392 | 38.95888 | 38842 ft | 528 kts | 358° |
| 2026-05-08 15:20 | 16.96735 | 38.96156 | 38874 ft | 528 kts | 358° |
| 2026-05-08 15:20 | 17.04083 | 38.96424 | 38982 ft | 528 kts | 358° |
| 2026-05-08 15:21 | 17.11415 | 38.96690 | 38991 ft | 528 kts | 358° |
| 2026-05-08 15:21 | 17.18767 | 38.96958 | 38994 ft | 528 kts | 358° |
| 2026-05-08 15:22 | 17.26064 | 38.97224 | 39005 ft | 528 kts | 358° |
| 2026-05-08 15:22 | 17.33418 | 38.97492 | 38995 ft | 528 kts | 358° |
| 2026-05-08 15:23 | 17.40772 | 38.97762 | 38998 ft | 529 kts | 358° |
| 2026-05-08 15:23 | 17.48121 | 38.98031 | 38991 ft | 529 kts | 358° |
| 2026-05-08 15:24 | 17.55473 | 38.98294 | 39000 ft | 529 kts | 357° |
| 2026-05-08 15:24 | 17.62830 | 38.98556 | 39003 ft | 529 kts | 358° |
| 2026-05-08 15:25 | 17.69436 | 38.98793 | 38993 ft | 529 kts | 357° |
| 2026-05-08 15:25 | 17.76795 | 38.99057 | 38995 ft | 529 kts | 357° |
| 2026-05-08 15:26 | 17.84166 | 38.99323 | 38953 ft | 529 kts | 357° |
| 2026-05-08 15:26 | 17.91528 | 38.99587 | 38961 ft | 529 kts | 357° |
| 2026-05-08 15:27 | 17.98844 | 38.99851 | 38962 ft | 529 kts | 357° |
| 2026-05-08 15:27 | 18.06229 | 39.00118 | 38963 ft | 531 kts | 357° |
| 2026-05-08 15:28 | 18.13625 | 39.00385 | 38961 ft | 532 kts | 357° |
| 2026-05-08 15:28 | 18.21023 | 39.00674 | 38969 ft | 533 kts | 358° |
| 2026-05-08 15:29 | 18.28433 | 39.01093 | 38978 ft | 533 kts | 359° |
| 2026-05-08 15:29 | 18.35849 | 39.01535 | 39091 ft | 533 kts | 358° |
| 2026-05-08 15:30 | 18.43266 | 39.01958 | 39129 ft | 534 kts | 358° |
| 2026-05-08 15:30 | 18.50688 | 39.02368 | 39129 ft | 534 kts | 358° |
| 2026-05-08 15:31 | 18.58078 | 39.02776 | 39120 ft | 534 kts | 358° |
| 2026-05-08 15:31 | 18.65506 | 39.03190 | 39049 ft | 535 kts | 358° |
| 2026-05-08 15:32 | 18.72954 | 39.03603 | 38969 ft | 535 kts | 358° |
| 2026-05-08 15:32 | 18.80396 | 39.04015 | 38962 ft | 535 kts | 358° |
| 2026-05-08 15:33 | 18.87834 | 39.04428 | 38960 ft | 536 kts | 358° |
| 2026-05-08 15:33 | 18.95289 | 39.04841 | 38953 ft | 537 kts | 358° |
| 2026-05-08 15:34 | 19.02745 | 39.05256 | 38949 ft | 537 kts | 358° |
| 2026-05-08 15:34 | 19.10163 | 39.05594 | 38938 ft | 534 kts | 353° |
| 2026-05-08 15:35 | 19.17397 | 39.04430 | 38935 ft | 522 kts | 340° |
| 2026-05-08 15:35 | 19.24428 | 39.02517 | 38918 ft | 522 kts | 338° |
| 2026-05-08 15:36 | 19.30294 | 39.00809 | 38919 ft | 522 kts | 338° |
| 2026-05-08 15:36 | 19.38446 | 38.98444 | 38914 ft | 523 kts | 338° |
| 2026-05-08 15:37 | 19.45471 | 38.96431 | 38903 ft | 523 kts | 338° |
| 2026-05-08 15:37 | 19.52509 | 38.94419 | 38900 ft | 523 kts | 338° |
| 2026-05-08 15:38 | 19.59549 | 38.92409 | 38898 ft | 524 kts | 338° |
| 2026-05-08 15:38 | 19.66595 | 38.90394 | 38889 ft | 524 kts | 338° |
| 2026-05-08 15:39 | 19.73643 | 38.88376 | 38883 ft | 524 kts | 338° |
| 2026-05-08 15:39 | 19.80665 | 38.86366 | 38879 ft | 526 kts | 338° |
| 2026-05-08 15:40 | 19.87732 | 38.84340 | 38868 ft | 526 kts | 338° |
| 2026-05-08 15:40 | 19.94802 | 38.82308 | 38869 ft | 526 kts | 338° |
| 2026-05-08 15:41 | 20.01866 | 38.80277 | 38860 ft | 526 kts | 338° |
| 2026-05-08 15:41 | 20.08948 | 38.78239 | 38827 ft | 528 kts | 338° |
| 2026-05-08 15:42 | 20.15332 | 38.76399 | 38821 ft | 528 kts | 338° |
| 2026-05-08 15:42 | 20.22426 | 38.74356 | 38811 ft | 528 kts | 338° |
| 2026-05-08 15:43 | 20.29522 | 38.72309 | 38812 ft | 528 kts | 338° |
| 2026-05-08 15:43 | 20.36623 | 38.70257 | 38829 ft | 528 kts | 338° |
| 2026-05-08 15:44 | 20.43715 | 38.68208 | 38853 ft | 528 kts | 338° |
| 2026-05-08 15:44 | 20.50815 | 38.66154 | 38850 ft | 528 kts | 338° |
| 2026-05-08 15:45 | 20.56932 | 38.64383 | 38847 ft | 529 kts | 338° |
| 2026-05-08 15:45 | 20.64030 | 38.62326 | 38841 ft | 528 kts | 338° |
| 2026-05-08 15:46 | 20.71138 | 38.60264 | 38838 ft | 529 kts | 338° |
| 2026-05-08 15:46 | 20.78258 | 38.58281 | 38830 ft | 533 kts | 343° |
| 2026-05-08 15:47 | 20.85696 | 38.58006 | 38832 ft | 548 kts | 4° |
| 2026-05-08 15:47 | 20.89434 | 38.58951 | 38833 ft | 554 kts | 17° |
| 2026-05-08 15:47 | 20.92959 | 38.60640 | 38831 ft | 557 kts | 28° |
| 2026-05-08 15:48 | 21.02946 | 38.67066 | 38822 ft | 559 kts | 31° |
| 2026-05-08 15:49 | 21.09537 | 38.71500 | 38824 ft | 560 kts | 31° |
| 2026-05-08 15:49 | 21.16161 | 38.75902 | 38813 ft | 560 kts | 31° |
| 2026-05-08 15:50 | 21.22799 | 38.80277 | 38813 ft | 560 kts | 30° |
| 2026-05-08 15:50 | 21.29444 | 38.84651 | 38813 ft | 560 kts | 30° |
| 2026-05-08 15:51 | 21.36090 | 38.89033 | 38809 ft | 561 kts | 31° |
| 2026-05-08 15:51 | 21.42705 | 38.93402 | 38805 ft | 561 kts | 31° |
| 2026-05-08 15:52 | 21.49364 | 38.97807 | 38803 ft | 561 kts | 31° |
| 2026-05-08 15:52 | 21.56017 | 39.02210 | 38804 ft | 562 kts | 31° |
| 2026-05-08 15:53 | 21.61597 | 39.05908 | 38804 ft | 563 kts | 31° |
| 2026-05-08 15:53 | 21.68270 | 39.10334 | 38805 ft | 563 kts | 31° |
| 2026-05-08 15:53 | 21.72895 | 39.12824 | 38808 ft | 560 kts | 19° |
| 2026-05-08 15:54 | 21.75298 | 39.13840 | 38803 ft | 560 kts | 18° |
| 2026-05-08 15:54 | 21.82631 | 39.16723 | 38804 ft | 560 kts | 16° |
| 2026-05-08 15:55 | 21.90001 | 39.19506 | 38807 ft | 561 kts | 16° |
| 2026-05-08 15:55 | 22.01054 | 39.23703 | 38816 ft | 562 kts | 16° |
| 2026-05-08 15:56 | 22.08420 | 39.26526 | 38822 ft | 562 kts | 16° |
| 2026-05-08 15:56 | 22.15800 | 39.29360 | 38832 ft | 562 kts | 16° |
| 2026-05-08 15:57 | 22.23132 | 39.32177 | 38840 ft | 563 kts | 16° |
| 2026-05-08 15:57 | 22.30515 | 39.35016 | 38850 ft | 563 kts | 16° |
| 2026-05-08 15:58 | 22.37874 | 39.37848 | 38537 ft | 557 kts | 16° |
| 2026-05-08 15:58 | 22.41535 | 39.39260 | 37767 ft | 558 kts | 16° |
| 2026-05-08 15:58 | 22.45192 | 39.40670 | 37036 ft | 557 kts | 16° |
| 2026-05-08 15:59 | 22.48844 | 39.42079 | 36366 ft | 555 kts | 16° |
| 2026-05-08 15:59 | 22.52469 | 39.43479 | 35700 ft | 552 kts | 16° |
| 2026-05-08 15:59 | 22.56072 | 39.44873 | 35003 ft | 550 kts | 16° |
| 2026-05-08 15:59 | 22.59678 | 39.46267 | 34321 ft | 547 kts | 16° |
| 2026-05-08 16:00 | 22.63256 | 39.47650 | 33644 ft | 545 kts | 16° |
| 2026-05-08 16:00 | 22.66810 | 39.49026 | 33027 ft | 540 kts | 16° |
| 2026-05-08 16:00 | 22.70328 | 39.50392 | 32481 ft | 534 kts | 16° |
| 2026-05-08 16:00 | 22.73784 | 39.51734 | 31742 ft | 520 kts | 16° |
| 2026-05-08 16:01 | 22.77170 | 39.53046 | 30644 ft | 511 kts | 15° |
| 2026-05-08 16:01 | 22.80482 | 39.54331 | 29669 ft | 499 kts | 15° |
| 2026-05-08 16:01 | 22.83711 | 39.55584 | 28724 ft | 486 kts | 15° |
| 2026-05-08 16:01 | 22.86854 | 39.56802 | 27862 ft | 474 kts | 15° |
| 2026-05-08 16:02 | 22.89882 | 39.57977 | 27436 ft | 462 kts | 15° |
| 2026-05-08 16:02 | 22.92891 | 39.59144 | 27018 ft | 456 kts | 15° |
| 2026-05-08 16:02 | 22.95853 | 39.60300 | 26614 ft | 449 kts | 16° |
| 2026-05-08 16:02 | 22.98774 | 39.61444 | 26198 ft | 442 kts | 15° |
| 2026-05-08 16:03 | 23.01692 | 39.62312 | 25784 ft | 429 kts | 4° |
| 2026-05-08 16:03 | 23.04668 | 39.62687 | 25360 ft | 421 kts | 0° |
| 2026-05-08 16:03 | 23.07529 | 39.62916 | 24975 ft | 414 kts | 359° |
| 2026-05-08 16:03 | 23.10382 | 39.63076 | 24585 ft | 407 kts | 358° |
| 2026-05-08 16:04 | 23.13196 | 39.63204 | 24202 ft | 401 kts | 358° |
| 2026-05-08 16:04 | 23.15975 | 39.63323 | 23826 ft | 396 kts | 358° |
| 2026-05-08 16:04 | 23.18709 | 39.63444 | 23456 ft | 391 kts | 358° |
| 2026-05-08 16:04 | 23.21407 | 39.63570 | 23072 ft | 386 kts | 358° |
| 2026-05-08 16:05 | 23.24082 | 39.63703 | 22700 ft | 384 kts | 358° |
| 2026-05-08 16:05 | 23.26757 | 39.63838 | 22308 ft | 383 kts | 358° |
| 2026-05-08 16:05 | 23.29416 | 39.63971 | 21942 ft | 382 kts | 359° |
| 2026-05-08 16:05 | 23.32068 | 39.64110 | 21571 ft | 381 kts | 359° |
| 2026-05-08 16:06 | 23.34705 | 39.64250 | 21197 ft | 379 kts | 359° |
| 2026-05-08 16:06 | 23.37336 | 39.64388 | 20821 ft | 377 kts | 359° |
| 2026-05-08 16:06 | 23.39959 | 39.64525 | 20448 ft | 376 kts | 359° |
| 2026-05-08 16:06 | 23.42531 | 39.64659 | 20081 ft | 374 kts | 359° |
| 2026-05-08 16:07 | 23.45123 | 39.64794 | 19680 ft | 373 kts | 359° |
| 2026-05-08 16:07 | 23.47714 | 39.64927 | 19337 ft | 372 kts | 359° |
| 2026-05-08 16:07 | 23.50293 | 39.65060 | 18966 ft | 370 kts | 359° |
| 2026-05-08 16:07 | 23.52863 | 39.65195 | 18601 ft | 368 kts | 359° |
| 2026-05-08 16:08 | 23.55418 | 39.65330 | 18235 ft | 367 kts | 359° |
| 2026-05-08 16:08 | 23.57966 | 39.65463 | 17866 ft | 366 kts | 359° |
| 2026-05-08 16:08 | 23.60505 | 39.65598 | 17464 ft | 364 kts | 359° |
| 2026-05-08 16:08 | 23.63032 | 39.65728 | 17086 ft | 363 kts | 359° |
| 2026-05-08 16:09 | 23.65550 | 39.65856 | 16711 ft | 361 kts | 359° |
| 2026-05-08 16:09 | 23.68051 | 39.65983 | 16342 ft | 359 kts | 359° |
| 2026-05-08 16:09 | 23.70542 | 39.66133 | 15997 ft | 362 kts | 1° |
| 2026-05-08 16:09 | 23.73092 | 39.66601 | 15786 ft | 378 kts | 9° |
| 2026-05-08 16:10 | 23.75639 | 39.67251 | 15273 ft | 381 kts | 11° |
| 2026-05-08 16:10 | 23.78213 | 39.67935 | 14724 ft | 378 kts | 11° |
| 2026-05-08 16:10 | 23.80744 | 39.68607 | 14315 ft | 373 kts | 11° |
| 2026-05-08 16:10 | 23.83261 | 39.69273 | 14007 ft | 367 kts | 10° |
| 2026-05-08 16:11 | 23.85706 | 39.69919 | 13797 ft | 354 kts | 10° |
| 2026-05-08 16:11 | 23.88057 | 39.70538 | 13561 ft | 339 kts | 10° |
| 2026-05-08 16:11 | 23.90318 | 39.71131 | 12914 ft | 330 kts | 10° |
| 2026-05-08 16:11 | 23.92523 | 39.71705 | 12659 ft | 326 kts | 10° |
| 2026-05-08 16:12 | 23.94726 | 39.72280 | 12305 ft | 324 kts | 10° |
| 2026-05-08 16:12 | 23.96885 | 39.72846 | 11956 ft | 321 kts | 10° |
| 2026-05-08 16:12 | 23.99048 | 39.73412 | 11597 ft | 319 kts | 10° |
| 2026-05-08 16:12 | 24.01198 | 39.73973 | 11233 ft | 317 kts | 11° |
| 2026-05-08 16:13 | 24.03336 | 39.74533 | 10871 ft | 315 kts | 11° |
| 2026-05-08 16:13 | 24.05495 | 39.75100 | 10495 ft | 315 kts | 11° |
| 2026-05-08 16:13 | 24.07628 | 39.75659 | 10108 ft | 315 kts | 12° |
| 2026-05-08 16:13 | 24.09768 | 39.76218 | 9575 ft | 317 kts | 12° |
| 2026-05-08 16:14 | 24.11905 | 39.76771 | 9186 ft | 314 kts | 12° |
| 2026-05-08 16:14 | 24.14031 | 39.77328 | 8872 ft | 311 kts | 13° |
| 2026-05-08 16:14 | 24.16072 | 39.77866 | 8702 ft | 300 kts | 13° |
| 2026-05-08 16:14 | 24.18065 | 39.78362 | 8535 ft | 288 kts | 9° |
| 2026-05-08 16:15 | 24.20022 | 39.78353 | 8346 ft | 277 kts | 351° |
| 2026-05-08 16:15 | 24.21888 | 39.77991 | 8097 ft | 269 kts | 347° |
| 2026-05-08 16:15 | 24.23697 | 39.77591 | 7981 ft | 263 kts | 347° |
| 2026-05-08 16:15 | 24.25487 | 39.77172 | 7740 ft | 261 kts | 346° |
| 2026-05-08 16:16 | 24.27254 | 39.76772 | 7414 ft | 258 kts | 348° |
| 2026-05-08 16:16 | 24.29011 | 39.76410 | 7046 ft | 257 kts | 348° |
| 2026-05-08 16:16 | 24.30747 | 39.76051 | 6669 ft | 256 kts | 348° |
| 2026-05-08 16:16 | 24.32496 | 39.75676 | 6292 ft | 255 kts | 348° |
| 2026-05-08 16:17 | 24.34212 | 39.75310 | 5938 ft | 254 kts | 348° |
| 2026-05-08 16:17 | 24.35374 | 39.75064 | 5736 ft | 250 kts | 348° |
| 2026-05-08 16:17 | 24.37612 | 39.74589 | 5290 ft | 244 kts | 348° |
| 2026-05-08 16:17 | 24.39233 | 39.74245 | 4971 ft | 230 kts | 349° |
| 2026-05-08 16:18 | 24.40751 | 39.73925 | 4682 ft | 214 kts | 347° |
| 2026-05-08 16:18 | 24.42164 | 39.73626 | 4409 ft | 199 kts | 346° |
| 2026-05-08 16:18 | 24.43479 | 39.73345 | 4152 ft | 186 kts | 346° |
| 2026-05-08 16:18 | 24.44704 | 39.73084 | 3912 ft | 175 kts | 345° |
| 2026-05-08 16:19 | 24.45863 | 39.72838 | 3679 ft | 164 kts | 345° |
| 2026-05-08 16:19 | 24.46952 | 39.72605 | 3465 ft | 155 kts | 345° |
| 2026-05-08 16:19 | 24.47996 | 39.72382 | 3263 ft | 152 kts | 345° |
| 2026-05-08 16:19 | 24.49032 | 39.72161 | 3059 ft | 151 kts | 345° |
| 2026-05-08 16:20 | 24.50067 | 39.71934 | 2871 ft | 152 kts | 345° |
| 2026-05-08 16:20 | 24.51103 | 39.71702 | 2665 ft | 152 kts | 346° |
| 2026-05-08 16:20 | 24.52140 | 39.71486 | 2468 ft | 152 kts | 346° |
| 2026-05-08 16:20 | 24.53165 | 39.71276 | 2255 ft | 151 kts | 347° |
| 2026-05-08 16:21 | 24.54196 | 39.71069 | 2124 ft | 149 kts | 347° |
| 2026-05-08 16:21 | 24.55076 | 39.70874 | 2118 ft | 105 kts | 349° |
| 2026-05-08 16:21 | 24.55623 | 39.70761 | 2114 ft | 56 kts | 349° |
| 2026-05-08 16:21 | 24.55844 | 39.70716 | 2117 ft | 15 kts | 349° |
| 2026-05-08 16:22 | 24.55951 | 39.70694 | 2118 ft | 16 kts | 349° |
| 2026-05-08 16:22 | 24.56064 | 39.70691 | 2119 ft | 17 kts | 5° |
| 2026-05-08 16:22 | 24.56178 | 39.70713 | 2120 ft | 16 kts | 17° |
| 2026-05-08 16:22 | 24.56264 | 39.70768 | 2115 ft | 14 kts | 54° |
| 2026-05-08 16:23 | 24.56240 | 39.70824 | 2113 ft | 9 kts | 172° |
| 2026-05-08 16:23 | 24.56171 | 39.70835 | 2113 ft | 11 kts | 171° |
| 2026-05-08 16:23 | 24.56086 | 39.70852 | 2113 ft | 14 kts | 169° |
| 2026-05-08 16:23 | 24.55988 | 39.70875 | 2113 ft | 15 kts | 168° |
| 2026-05-08 16:24 | 24.55875 | 39.70901 | 2113 ft | 18 kts | 168° |
| 2026-05-08 16:24 | 24.55750 | 39.70927 | 2112 ft | 19 kts | 172° |
| 2026-05-08 16:24 | 24.55613 | 39.70952 | 2113 ft | 21 kts | 169° |
| 2026-05-08 16:24 | 24.55507 | 39.70976 | 2112 ft | 14 kts | 168° |
| 2026-05-08 16:25 | 24.55405 | 39.70999 | 2112 ft | 16 kts | 169° |
| 2026-05-08 16:25 | 24.55306 | 39.71019 | 2112 ft | 13 kts | 169° |
| 2026-05-08 16:25 | 24.55228 | 39.71059 | 2112 ft | 13 kts | 119° |
| 2026-05-08 16:25 | 24.55233 | 39.71137 | 2111 ft | 7 kts | 78° |
| 2026-05-08 16:26 | 24.55249 | 39.71200 | 2111 ft | 9 kts | 57° |
| 2026-05-08 16:26 | 24.55311 | 39.71214 | 2111 ft | 10 kts | 350° |
| 2026-05-08 16:26 | 24.55371 | 39.71201 | 2111 ft | 9 kts | 350° |
| 2026-05-08 16:26 | 24.55426 | 39.71191 | 2111 ft | 6 kts | 350° |
| 2026-05-08 16:27 | 24.55453 | 39.71207 | 2111 ft | 5 kts | 54° |
| 2026-05-08 16:27 | 24.55462 | 39.71237 | 2111 ft | 2 kts | 79° |
| 2026-05-08 16:27 | 24.55466 | 39.71261 | 2111 ft | 3 kts | 79° |
| 2026-05-08 16:27 | 24.55469 | 39.71275 | 2111 ft | 1 kts | 78° |
| 2026-05-08 16:28 | 24.55470 | 39.71282 | 2111 ft | 0 kts | 78° |